Time;durP1;ratioP1;P1;durP2;ratioP2;P2;SDS_P1;SDS_P2;PMS_P1;PMS_P2;Temp;Humidity;BMP_temperature;BMP_pressure;BME280_temperature;BME280_humidity;BME280_pressure;Samples;Min_cycle;Max_cycle;Signal;HPM_P1;HPM_P2
2023/05/03 00:02:24;;;;;;;11.52;3.60;;;;;;;5.54;88.87;102844.38;5093124;28;20024;-73
2023/05/03 00:04:53;;;;;;;8.82;3.47;;;;;;;5.43;89.00;102836.31;5086833;28;20456;-72
2023/05/03 00:07:19;;;;;;;6.97;3.45;;;;;;;5.43;89.63;102838.00;5093296;28;20046;-72
2023/05/03 00:09:44;;;;;;;6.00;3.47;;;;;;;5.45;89.74;102838.94;5094454;28;20020;-72
2023/05/03 00:12:10;;;;;;;6.82;3.38;;;;;;;5.44;90.15;102843.22;5092786;28;20031;-72
2023/05/03 00:14:35;;;;;;;6.65;3.45;;;;;;;5.50;90.24;102845.13;5094538;28;20097;-72
2023/05/03 00:17:00;;;;;;;6.53;3.42;;;;;;;5.44;90.83;102843.22;5094251;28;20032;-72
2023/05/03 00:19:32;;;;;;;6.95;3.42;;;;;;;5.39;91.49;102837.94;5094748;28;20077;-72
2023/05/03 00:21:58;;;;;;;5.85;3.53;;;;;;;5.35;91.62;102830.88;5099847;28;20035;-72
2023/05/03 00:24:24;;;;;;;7.28;3.88;;;;;;;5.37;91.45;102831.81;5092955;28;20111;-72
2023/05/03 00:26:49;;;;;;;7.97;3.80;;;;;;;5.43;91.81;102840.56;5096342;28;20127;-72
2023/05/03 00:29:15;;;;;;;7.93;3.38;;;;;;;5.29;91.73;102830.69;5106132;28;20033;-73
2023/05/03 00:31:42;;;;;;;8.40;4.32;;;;;;;5.35;91.35;102846.41;5091153;28;20111;-72
2023/05/03 00:34:08;;;;;;;11.07;4.00;;;;;;;5.30;91.79;102847.13;5097890;28;20028;-73
2023/05/03 00:36:33;;;;;;;7.80;4.13;;;;;;;5.21;91.87;102839.06;5103447;28;20085;-72
2023/05/03 00:38:58;;;;;;;5.70;3.67;;;;;;;5.24;91.69;102844.34;5101567;28;20028;-72
2023/05/03 00:41:25;;;;;;;8.48;4.25;;;;;;;5.22;91.88;102843.41;5104579;28;20016;-72
2023/05/03 00:43:51;;;;;;;7.30;3.40;;;;;;;5.17;91.84;102848.47;5108815;28;20172;-72
2023/05/03 00:46:16;;;;;;;8.95;4.38;;;;;;;5.15;92.75;102842.34;5102910;28;20890;-72
2023/05/03 00:48:41;;;;;;;9.73;3.50;;;;;;;5.12;92.44;102847.41;5095219;28;20027;-72
2023/05/03 00:51:07;;;;;;;7.68;3.60;;;;;;;5.09;93.24;102844.75;5106204;28;20035;-72
2023/05/03 00:53:33;;;;;;;9.40;3.70;;;;;;;5.03;92.62;102836.78;5107039;28;20020;-72
2023/05/03 00:56:00;;;;;;;8.73;4.07;;;;;;;4.98;92.96;102835.78;5093681;28;20028;-72
2023/05/03 00:58:25;;;;;;;8.40;4.10;;;;;;;4.98;93.84;102843.53;5093207;28;20087;-72
2023/05/03 01:00:52;;;;;;;7.05;3.35;;;;;;;4.94;94.22;102842.56;5103832;28;20047;-72
2023/05/03 01:03:17;;;;;;;6.68;3.78;;;;;;;4.91;94.62;102834.72;5110925;28;20027;-72
2023/05/03 01:06:12;;;;;;;5.78;3.85;;;;;;;4.92;95.37;102836.47;5093799;28;20390;-72
2023/05/03 01:08:45;;;;;;;7.00;3.72;;;;;;;4.89;95.82;102829.47;5095002;28;20118;-72
2023/05/03 01:11:22;;;;;;;9.73;4.15;;;;;;;4.88;95.32;102830.31;5099284;27;20064;-72
2023/05/03 01:13:59;;;;;;;10.02;3.60;;;;;;;4.86;96.41;102824.22;5085590;28;20425;-72
2023/05/03 01:16:39;;;;;;;6.82;4.07;;;;;;;4.85;95.78;102840.56;5106799;28;20439;-72
2023/05/03 01:19:18;;;;;;;7.78;3.80;;;;;;;4.74;96.14;102828.09;5109165;28;20032;-72
2023/05/03 01:21:49;;;;;;;6.93;3.92;;;;;;;4.76;96.32;102834.22;5101747;28;20034;-72
2023/05/03 01:24:20;;;;;;;7.05;4.38;;;;;;;4.72;96.20;102834.94;5091686;28;20109;-72
2023/05/03 01:26:46;;;;;;;8.93;4.05;;;;;;;4.78;97.63;102843.78;5101104;28;20020;-72
2023/05/03 01:29:11;;;;;;;9.70;4.00;;;;;;;4.73;97.43;102840.16;5104243;28;20168;-72
2023/05/03 01:31:55;;;;;;;9.88;3.60;;;;;;;4.75;98.34;102842.81;5104487;28;20027;-72
2023/05/03 01:34:44;;;;;;;8.75;4.25;;;;;;;4.78;97.39;102843.78;5090052;28;20499;-72
2023/05/03 01:37:11;;;;;;;8.60;3.88;;;;;;;4.75;96.55;102850.56;5099883;28;20055;-72
2023/05/03 01:39:42;;;;;;;6.40;4.10;;;;;;;4.69;96.97;102846.94;5104709;28;20028;-72
2023/05/03 01:42:08;;;;;;;6.32;4.20;;;;;;;4.69;97.25;102851.22;5096477;28;20028;-72
2023/05/03 01:44:35;;;;;;;8.05;3.90;;;;;;;4.64;97.35;102839.84;5104487;28;20494;-72
2023/05/03 01:47:00;;;;;;;6.40;3.97;;;;;;;4.63;97.33;102853.59;5102301;28;20441;-72
2023/05/03 01:49:26;;;;;;;6.38;3.90;;;;;;;4.57;98.53;102843.06;5104463;28;20028;-72
2023/05/03 01:51:51;;;;;;;10.38;4.05;;;;;;;4.55;98.54;102839.56;5111710;27;20028;-72
2023/05/03 01:54:17;;;;;;;11.95;4.03;;;;;;;4.51;97.86;102842.84;5098526;28;20028;-72
2023/05/03 01:56:42;;;;;;;7.72;4.30;;;;;;;4.50;98.13;102847.16;5106857;28;20024;-72
2023/05/03 01:59:07;;;;;;;6.80;3.92;;;;;;;4.54;98.22;102850.72;5097379;28;20039;-72
2023/05/03 02:01:33;;;;;;;9.27;3.80;;;;;;;4.57;98.02;102849.09;5089275;28;20061;-72
2023/05/03 02:03:58;;;;;;;8.70;3.83;;;;;;;4.60;97.85;102845.75;5100650;28;20063;-72
2023/05/03 02:06:24;;;;;;;7.80;4.38;;;;;;;4.55;97.95;102845.59;5097190;28;20028;-72
2023/05/03 02:08:50;;;;;;;9.90;4.68;;;;;;;4.54;98.22;102850.72;5110776;28;20064;-72
2023/05/03 02:11:15;;;;;;;9.88;4.30;;;;;;;4.46;98.41;102840.13;5099854;28;20031;-72
2023/05/03 02:13:41;;;;;;;8.38;4.35;;;;;;;4.41;98.41;102846.81;5091119;28;20043;-72
2023/05/03 02:16:06;;;;;;;8.68;4.72;;;;;;;4.41;98.26;102844.25;5096498;28;20020;-72
2023/05/03 02:18:32;;;;;;;7.60;4.32;;;;;;;4.36;98.87;102846.69;5099434;28;20024;-72
2023/05/03 02:20:57;;;;;;;7.93;4.55;;;;;;;4.30;99.87;102833.56;5104296;28;20032;-72
2023/05/03 02:23:23;;;;;;;10.32;4.20;;;;;;;4.34;99.67;102837.13;5110600;28;20041;-72
2023/05/03 02:25:48;;;;;;;8.30;4.13;;;;;;;4.28;99.27;102839.50;5098623;28;20493;-72
2023/05/03 02:28:14;;;;;;;8.93;3.70;;;;;;;4.20;99.31;102837.53;5097785;28;20073;-72
2023/05/03 02:30:40;;;;;;;9.38;4.45;;;;;;;4.16;99.99;102829.63;5101645;28;20115;-72
2023/05/03 02:33:05;;;;;;;6.78;4.28;;;;;;;4.14;100.00;102828.69;5100191;28;20058;-72
2023/05/03 02:35:30;;;;;;;9.73;4.70;;;;;;;4.14;100.00;102823.53;5103699;28;20353;-72
2023/05/03 02:37:56;;;;;;;7.95;5.38;;;;;;;4.09;100.00;102822.50;5090668;28;20082;-72
2023/05/03 02:40:21;;;;;;;9.50;4.47;;;;;;;4.01;100.00;102811.03;5098861;28;20019;-72
2023/05/03 02:42:46;;;;;;;11.05;4.40;;;;;;;3.99;100.00;102814.44;5108911;28;20024;-72
2023/05/03 02:45:12;;;;;;;10.23;4.60;;;;;;;3.95;100.00;102809.09;5098560;28;20149;-72
2023/05/03 02:47:37;;;;;;;11.05;4.60;;;;;;;3.96;100.00;102809.16;5105092;28;20020;-72
2023/05/03 02:50:03;;;;;;;6.68;4.35;;;;;;;3.96;100.00;102797.97;5108629;28;20058;-72
2023/05/03 02:52:28;;;;;;;10.10;4.30;;;;;;;4.02;100.00;102795.59;5102155;28;20076;-72
2023/05/03 02:54:54;;;;;;;7.10;4.13;;;;;;;4.04;100.00;102793.94;5102834;28;20024;-72
2023/05/03 02:57:19;;;;;;;9.20;4.90;;;;;;;4.06;100.00;102781.97;5097929;28;20019;-71
2023/05/03 02:59:44;;;;;;;9.73;4.72;;;;;;;3.98;100.00;102770.50;5107343;28;20073;-72
2023/05/03 03:02:10;;;;;;;6.57;4.47;;;;;;;4.05;100.00;102790.53;5096388;28;20039;-72
2023/05/03 03:04:35;;;;;;;7.88;4.43;;;;;;;4.05;100.00;102795.69;5107459;28;20027;-72
2023/05/03 03:07:00;;;;;;;7.68;4.30;;;;;;;4.06;100.00;102791.44;5112370;28;20133;-72
2023/05/03 03:09:25;;;;;;;8.32;4.38;;;;;;;4.06;100.00;102794.00;5108322;28;20024;-72
2023/05/03 03:11:51;;;;;;;10.93;4.80;;;;;;;4.07;99.59;102806.09;5107219;28;20038;-72
2023/05/03 03:14:17;;;;;;;10.15;4.35;;;;;;;4.04;100.00;102806.84;5102750;28;20052;-72
2023/05/03 03:16:44;;;;;;;8.93;4.78;;;;;;;3.96;100.00;102791.09;5113299;28;20024;-72
2023/05/03 03:19:09;;;;;;;12.18;4.82;;;;;;;3.97;100.00;102803.19;5110110;28;20053;-72
2023/05/03 03:21:35;;;;;;;10.57;4.97;;;;;;;3.89;100.00;102788.22;5111281;28;20027;-72
2023/05/03 03:24:02;;;;;;;11.05;5.07;;;;;;;3.94;100.00;102794.44;5109176;28;20042;-72
2023/05/03 03:26:27;;;;;;;8.07;4.70;;;;;;;3.96;100.00;102801.44;5101486;28;20031;-72
2023/05/03 03:28:53;;;;;;;11.90;5.15;;;;;;;3.88;100.00;102807.13;5103685;28;20027;-72
2023/05/03 03:31:18;;;;;;;8.88;5.18;;;;;;;3.92;100.00;102814.16;5103582;28;20016;-72
2023/05/03 03:33:43;;;;;;;7.97;4.95;;;;;;;3.91;100.00;102817.56;5103067;28;20015;-72
2023/05/03 03:36:09;;;;;;;8.75;4.63;;;;;;;3.89;100.00;102816.63;5102380;28;20066;-72
2023/05/03 03:38:34;;;;;;;6.72;4.95;;;;;;;3.83;100.00;102812.16;5109875;28;20522;-72
2023/05/03 03:41:00;;;;;;;9.57;5.05;;;;;;;3.80;100.00;102814.63;5091093;28;20075;-72
2023/05/03 03:43:25;;;;;;;8.18;5.10;;;;;;;3.76;100.00;102807.59;5091537;28;20031;-72
2023/05/03 03:45:51;;;;;;;9.90;5.13;;;;;;;3.68;100.00;102806.44;5105527;28;20024;-72
2023/05/03 03:48:16;;;;;;;12.13;5.30;;;;;;;3.60;100.00;102802.69;5101766;28;20024;-72
2023/05/03 03:50:41;;;;;;;11.15;5.05;;;;;;;3.57;100.00;102806.03;5107837;28;20023;-73
2023/05/03 03:53:09;;;;;;;7.97;5.10;;;;;;;3.51;100.00;102800.66;5104874;28;20036;-72
2023/05/03 03:55:35;;;;;;;12.02;5.82;;;;;;;3.49;100.00;102804.88;5088933;28;20020;-72
2023/05/03 03:58:04;;;;;;;10.38;5.35;;;;;;;3.43;100.00;102802.97;5112344;28;20382;-72
2023/05/03 04:00:29;;;;;;;7.25;5.60;;;;;;;3.41;100.00;102812.31;5098602;28;20032;-72
2023/05/03 04:02:55;;;;;;;10.05;5.65;;;;;;;3.36;100.00;102821.56;5103931;28;20168;-72
2023/05/03 04:05:20;;;;;;;11.55;5.38;;;;;;;3.32;100.00;102819.72;5098492;28;20113;-72
2023/05/03 04:07:45;;;;;;;7.00;5.22;;;;;;;3.26;100.00;102811.75;5113226;28;20024;-72
2023/05/03 04:10:11;;;;;;;8.25;5.88;;;;;;;3.27;100.00;102821.25;5095248;28;20024;-72
2023/05/03 04:12:36;;;;;;;7.82;5.55;;;;;;;3.24;100.00;102824.59;5113993;28;20042;-72
2023/05/03 04:15:03;;;;;;;12.20;5.45;;;;;;;3.19;100.00;102820.06;5094411;27;20391;-72
2023/05/03 04:17:28;;;;;;;9.50;5.68;;;;;;;3.18;100.00;102831.19;5091099;28;20077;-72
2023/05/03 04:19:53;;;;;;;8.45;5.28;;;;;;;3.17;100.00;102825.19;5098105;28;20020;-72
2023/05/03 04:22:19;;;;;;;11.13;5.68;;;;;;;3.11;100.00;102824.06;5103446;28;20032;-72
2023/05/03 04:24:44;;;;;;;12.60;5.82;;;;;;;3.05;100.00;102804.94;5095892;28;20028;-72
2023/05/03 04:27:10;;;;;;;11.65;5.65;;;;;;;3.06;100.00;102816.13;5098718;28;20038;-72
2023/05/03 04:29:37;;;;;;;10.00;5.68;;;;;;;3.08;100.00;102818.78;5098409;28;20095;-72
2023/05/03 04:32:03;;;;;;;11.18;5.60;;;;;;;3.14;100.00;102824.16;5090422;28;20529;-72
2023/05/03 04:34:29;;;;;;;13.07;6.25;;;;;;;3.14;100.00;102825.06;5103186;28;20024;-72
2023/05/03 04:36:54;;;;;;;11.02;5.93;;;;;;;3.10;100.00;102827.44;5098964;28;20027;-72
2023/05/03 04:39:20;;;;;;;8.93;5.72;;;;;;;3.15;100.00;102833.66;5096773;28;20039;-72
2023/05/03 04:41:46;;;;;;;10.77;5.35;;;;;;;3.21;100.00;102839.06;5109161;28;20035;-72
2023/05/03 04:44:13;;;;;;;9.43;5.95;;;;;;;3.29;100.00;102847.94;5103799;28;20753;-72
2023/05/03 04:46:38;;;;;;;8.68;6.53;;;;;;;3.36;100.00;102854.22;5100313;28;20028;-73
2023/05/03 04:49:05;;;;;;;10.18;6.45;;;;;;;3.38;100.00;102850.88;5103444;28;20039;-72
2023/05/03 04:51:30;;;;;;;11.98;7.25;;;;;;;3.43;100.00;102861.38;5103653;28;20110;-73
2023/05/03 04:53:57;;;;;;;11.77;6.35;;;;;;;3.47;100.00;102863.25;5108790;28;20535;-72
2023/05/03 04:56:25;;;;;;;9.00;6.03;;;;;;;3.64;100.00;102876.78;5094494;28;20035;-72
2023/05/03 04:58:51;;;;;;;12.10;6.60;;;;;;;3.67;100.00;102874.31;5096177;28;20020;-72
2023/05/03 05:01:17;;;;;;;11.68;7.15;;;;;;;3.78;100.00;102883.31;5098091;28;20028;-72
2023/05/03 05:03:42;;;;;;;15.52;7.10;;;;;;;3.74;100.00;102877.19;5096114;28;20184;-72
2023/05/03 05:06:09;;;;;;;10.20;6.47;;;;;;;3.79;100.00;102887.66;5096795;28;20119;-72
2023/05/03 05:08:35;;;;;;;14.48;6.65;;;;;;;3.91;100.00;102895.84;5103992;28;20051;-72
2023/05/03 05:11:03;;;;;;;12.55;7.10;;;;;;;3.93;100.00;102885.59;5094084;28;20486;-72
2023/05/03 05:13:29;;;;;;;12.25;6.60;;;;;;;3.94;100.00;102879.63;5105402;28;20085;-72
2023/05/03 05:15:54;;;;;;;17.17;7.30;;;;;;;4.02;100.00;102888.50;5102135;28;20468;-72
2023/05/03 05:18:20;;;;;;;12.68;6.60;;;;;;;4.12;100.00;102893.19;5098266;28;20593;-73
2023/05/03 05:20:45;;;;;;;12.63;6.97;;;;;;;4.13;100.00;102883.75;5107410;28;20031;-73
2023/05/03 05:23:11;;;;;;;14.82;6.90;;;;;;;4.20;100.00;102881.41;5100784;28;20024;-73
2023/05/03 05:25:36;;;;;;;13.68;7.28;;;;;;;4.25;100.00;102881.59;5096891;28;20034;-72
2023/05/03 05:28:01;;;;;;;18.20;6.90;;;;;;;4.36;100.00;102884.56;5104995;28;20181;-72
2023/05/03 05:30:27;;;;;;;10.27;6.68;;;;;;;4.43;100.00;102881.34;5104959;28;20059;-72
2023/05/03 05:32:52;;;;;;;13.68;6.95;;;;;;;4.46;100.00;102882.31;5100007;28;20042;-72
2023/05/03 05:35:18;;;;;;;12.40;7.50;;;;;;;4.47;100.00;102873.75;5095035;28;20020;-73
2023/05/03 05:37:43;;;;;;;13.40;6.63;;;;;;;4.56;100.00;102882.66;5113252;28;20077;-72
2023/05/03 05:40:10;;;;;;;14.43;6.53;;;;;;;4.58;99.91;102876.72;5104475;28;20023;-72
2023/05/03 05:42:35;;;;;;;11.73;6.72;;;;;;;4.73;99.52;102880.63;5112692;28;20049;-72
2023/05/03 05:45:00;;;;;;;13.55;7.43;;;;;;;4.81;99.63;102880.06;5100192;28;20028;-71
2023/05/03 05:47:26;;;;;;;14.23;6.80;;;;;;;4.87;98.45;102869.94;5105894;28;20561;-72
2023/05/03 05:49:51;;;;;;;11.45;6.57;;;;;;;4.93;97.45;102874.38;5092183;28;20106;-72
2023/05/03 05:52:16;;;;;;;11.52;6.45;;;;;;;4.99;97.77;102871.13;5101537;28;20032;-72
2023/05/03 05:54:41;;;;;;;13.50;6.80;;;;;;;5.05;97.38;102881.69;5100104;28;20021;-72
2023/05/03 05:57:07;;;;;;;13.73;6.60;;;;;;;5.11;97.40;102868.94;5094452;28;20482;-72
2023/05/03 05:59:32;;;;;;;11.18;6.90;;;;;;;5.19;96.97;102884.69;5101916;28;20024;-72
2023/05/03 06:01:59;;;;;;;12.55;6.45;;;;;;;5.27;95.50;102897.03;5087465;28;20107;-72
2023/05/03 06:04:24;;;;;;;12.98;6.20;;;;;;;5.30;96.43;102885.91;5098942;28;20033;-72
2023/05/03 06:06:49;;;;;;;7.93;6.18;;;;;;;5.44;96.41;102899.28;5106806;28;20031;-72
2023/05/03 06:09:15;;;;;;;10.20;6.15;;;;;;;5.47;96.51;102882.13;5105093;28;20020;-73
2023/05/03 06:11:42;;;;;;;14.98;5.80;;;;;;;5.61;95.21;102896.34;5102024;28;20027;-72
2023/05/03 06:14:08;;;;;;;14.18;6.00;;;;;;;5.72;95.02;102888.91;5102504;28;20089;-72
2023/05/03 06:16:36;;;;;;;16.77;6.40;;;;;;;5.80;93.50;102881.38;5093801;28;20086;-72
2023/05/03 06:19:03;;;;;;;10.35;5.07;;;;;;;5.83;93.51;102865.94;5105264;28;20111;-72
2023/05/03 06:21:29;;;;;;;10.18;5.32;;;;;;;5.94;93.46;102876.59;5112767;28;20050;-72
2023/05/03 06:23:55;;;;;;;7.90;5.20;;;;;;;6.00;93.57;102862.13;5105164;28;20027;-72
2023/05/03 06:26:20;;;;;;;12.38;5.47;;;;;;;6.05;91.65;102860.53;5103814;28;20047;-72
2023/05/03 06:28:46;;;;;;;12.88;5.72;;;;;;;6.08;90.91;102863.22;5113460;28;20020;-72
2023/05/03 06:31:11;;;;;;;12.20;5.45;;;;;;;6.23;90.91;102874.81;5115996;28;20027;-72
2023/05/03 06:33:36;;;;;;;9.52;5.45;;;;;;;6.30;89.72;102871.56;5116505;28;20102;-72
2023/05/03 06:36:02;;;;;;;12.50;5.53;;;;;;;6.40;90.94;102870.97;5109604;28;20055;-72
2023/05/03 06:38:28;;;;;;;12.02;5.18;;;;;;;6.47;90.63;102869.41;5107398;28;20114;-71
2023/05/03 06:40:53;;;;;;;9.85;5.22;;;;;;;6.49;90.31;102862.56;5116604;28;20028;-72
2023/05/03 06:43:19;;;;;;;12.50;5.30;;;;;;;6.59;89.04;102864.53;5110032;28;20115;-72
2023/05/03 06:45:46;;;;;;;10.70;5.30;;;;;;;6.68;87.92;102872.56;5099571;28;20036;-72
2023/05/03 06:48:11;;;;;;;9.43;5.60;;;;;;;6.70;87.36;102860.53;5099586;28;20032;-71
2023/05/03 06:50:36;;;;;;;8.88;5.00;;;;;;;6.78;86.71;102853.78;5098638;28;20024;-72
2023/05/03 06:53:02;;;;;;;12.60;5.50;;;;;;;6.84;87.08;102854.78;5106210;28;20395;-71
2023/05/03 06:55:27;;;;;;;9.48;5.50;;;;;;;6.95;86.26;102853.31;5107450;28;20364;-70
2023/05/03 06:57:53;;;;;;;13.43;6.18;;;;;;;6.96;85.52;102840.38;5103523;28;20387;-72
2023/05/03 07:00:21;;;;;;;12.43;6.00;;;;;;;7.01;85.86;102838.78;5107935;28;20031;-72
2023/05/03 07:02:47;;;;;;;11.52;6.63;;;;;;;7.17;85.89;102846.91;5100700;28;20032;-72
2023/05/03 07:05:12;;;;;;;9.07;5.55;;;;;;;7.25;86.24;102850.53;5104445;28;20026;-72
2023/05/03 07:07:38;;;;;;;13.25;6.70;;;;;;;7.32;85.89;102855.03;5115865;28;20431;-72
2023/05/03 07:10:04;;;;;;;11.15;5.90;;;;;;;7.41;86.53;102850.03;5115884;28;20515;-72
2023/05/03 07:12:29;;;;;;;10.15;6.30;;;;;;;7.51;84.10;102858.91;5115595;28;20023;-72
2023/05/03 07:14:54;;;;;;;16.05;6.10;;;;;;;7.56;83.58;102862.47;5115265;28;20035;-72
2023/05/03 07:17:23;;;;;;;13.65;6.60;;;;;;;7.58;83.52;102853.00;5115951;28;20058;-72
2023/05/03 07:19:51;;;;;;;12.15;6.57;;;;;;;7.69;83.57;102850.63;5115349;28;20073;-73
2023/05/03 07:22:19;;;;;;;11.45;6.57;;;;;;;7.70;82.34;102848.06;5115668;28;20033;-73
2023/05/03 07:24:44;;;;;;;15.43;6.88;;;;;;;7.82;82.89;102854.38;5115286;28;20034;-72
2023/05/03 07:27:10;;;;;;;10.23;6.57;;;;;;;7.89;82.34;102862.28;5114835;28;20036;-72
2023/05/03 07:29:35;;;;;;;11.70;6.95;;;;;;;7.99;82.03;102865.94;5115215;28;20485;-73
2023/05/03 07:32:00;;;;;;;12.88;6.63;;;;;;;8.03;80.60;102856.50;5115386;28;20531;-72
2023/05/03 07:34:26;;;;;;;16.55;6.30;;;;;;;8.11;80.48;102858.41;5115123;28;20073;-72
2023/05/03 07:36:51;;;;;;;14.88;6.05;;;;;;;8.19;81.02;102849.00;5115208;28;20090;-72
2023/05/03 07:39:17;;;;;;;13.35;6.15;;;;;;;8.25;79.34;102845.66;5115476;27;20026;-73
2023/05/03 07:41:42;;;;;;;10.32;5.90;;;;;;;8.30;78.94;102837.94;5114648;28;20173;-72
2023/05/03 07:44:08;;;;;;;9.68;5.82;;;;;;;8.37;78.72;102834.59;5115532;28;20023;-73
2023/05/03 07:46:34;;;;;;;10.88;6.25;;;;;;;8.41;76.74;102833.84;5115593;28;20424;-73
2023/05/03 07:49:00;;;;;;;9.95;6.18;;;;;;;8.51;79.15;102830.56;5114417;28;20020;-72
2023/05/03 07:51:27;;;;;;;14.85;6.88;;;;;;;8.60;78.37;102830.72;5115491;28;20016;-73
2023/05/03 07:53:52;;;;;;;12.23;5.85;;;;;;;8.75;78.71;102831.78;5114471;28;20099;-72
2023/05/03 07:56:18;;;;;;;11.40;6.20;;;;;;;8.76;77.54;102817.94;5115145;28;20107;-73
2023/05/03 07:58:43;;;;;;;11.52;5.97;;;;;;;8.90;76.89;102808.63;5115163;28;20035;-72
2023/05/03 08:01:08;;;;;;;8.52;5.47;;;;;;;9.01;73.23;102811.38;5114672;28;20019;-72
2023/05/03 08:03:34;;;;;;;9.90;5.50;;;;;;;9.09;76.13;102809.75;5114999;28;20466;-72
2023/05/03 08:05:59;;;;;;;9.48;5.07;;;;;;;9.18;74.01;102812.47;5114947;28;20082;-72
2023/05/03 08:08:24;;;;;;;9.48;5.47;;;;;;;9.23;73.11;102805.63;5114708;28;20025;-73
2023/05/03 08:10:51;;;;;;;9.10;5.05;;;;;;;9.23;72.19;102776.13;5114722;28;20023;-73
2023/05/03 08:13:17;;;;;;;11.43;5.90;;;;;;;9.40;73.03;102787.63;5114584;28;20505;-73
2023/05/03 08:15:43;;;;;;;10.38;5.65;;;;;;;9.56;71.52;102792.16;5114192;28;20027;-73
2023/05/03 08:18:08;;;;;;;7.82;5.20;;;;;;;9.58;70.19;102785.25;5114358;28;20022;-72
2023/05/03 08:20:35;;;;;;;11.50;4.82;;;;;;;9.61;67.50;102784.38;5115101;28;20035;-73
2023/05/03 08:23:01;;;;;;;9.23;4.88;;;;;;;9.71;69.22;102790.56;5113831;28;20032;-73
2023/05/03 08:25:27;;;;;;;8.35;4.57;;;;;;;9.87;68.37;102792.50;5114461;28;20363;-73
2023/05/03 08:27:52;;;;;;;10.07;4.72;;;;;;;9.89;65.37;102782.97;5114725;28;20023;-72
2023/05/03 08:30:20;;;;;;;9.57;4.70;;;;;;;10.00;65.93;102781.34;5099892;28;20020;-73
2023/05/03 08:32:46;;;;;;;8.20;4.63;;;;;;;10.05;63.68;102774.44;5114005;28;20490;-73
2023/05/03 08:35:12;;;;;;;5.97;4.47;;;;;;;10.11;65.72;102780.59;5114238;28;20032;-73
2023/05/03 08:37:39;;;;;;;8.57;4.82;;;;;;;10.29;65.87;102775.56;5113366;28;20102;-73
2023/05/03 08:40:05;;;;;;;8.38;4.63;;;;;;;10.43;65.01;102781.78;5113324;28;20119;-73
2023/05/03 08:42:32;;;;;;;9.10;4.63;;;;;;;10.58;62.43;102777.53;5114046;28;20036;-72
2023/05/03 08:44:58;;;;;;;9.20;4.60;;;;;;;10.65;61.68;102763.66;5113120;28;20040;-73
2023/05/03 08:47:23;;;;;;;13.15;4.55;;;;;;;10.78;62.44;102775.91;5114105;28;20111;-72
2023/05/03 08:49:51;;;;;;;9.43;5.05;;;;;;;10.86;60.19;102762.94;5114203;28;20042;-73
2023/05/03 08:52:19;;;;;;;9.32;4.57;;;;;;;10.96;58.66;102773.44;5113457;28;20368;-73
2023/05/03 08:54:44;;;;;;;5.97;4.30;;;;;;;10.97;56.06;102774.31;5113834;28;20030;-73
2023/05/03 08:57:12;;;;;;;6.57;4.50;;;;;;;11.04;57.35;102780.44;5113702;28;20027;-72
2023/05/03 08:59:48;;;;;;;8.38;4.10;;;;;;;11.09;58.03;102787.44;5113394;27;20110;-72
2023/05/03 09:02:15;;;;;;;9.85;4.65;;;;;;;11.12;57.01;102797.03;5113947;28;20073;-73
2023/05/03 09:04:40;;;;;;;8.80;4.85;;;;;;;11.13;59.08;102791.81;5112751;28;20053;-73
2023/05/03 09:07:07;;;;;;;7.40;4.43;;;;;;;11.17;59.14;102770.06;5113515;28;20027;-73
2023/05/03 09:09:32;;;;;;;7.30;4.55;;;;;;;11.37;56.38;102790.16;5095714;28;20024;-72
2023/05/03 09:11:58;;;;;;;9.52;4.65;;;;;;;11.28;56.97;102775.34;5108706;28;20027;-73
2023/05/03 09:14:23;;;;;;;9.85;4.40;;;;;;;11.46;56.94;102783.25;5113122;28;20444;-72
2023/05/03 09:16:48;;;;;;;14.98;5.07;;;;;;;11.61;55.64;102784.19;5113490;28;20019;-73
2023/05/03 09:19:14;;;;;;;7.88;4.80;;;;;;;11.69;54.33;102791.16;5096847;28;20483;-72
2023/05/03 09:21:42;;;;;;;8.55;5.63;;;;;;;11.64;54.54;102777.22;5111456;28;20360;-73
2023/05/03 09:24:15;;;;;;;8.02;4.00;;;;;;;11.77;55.81;102778.13;5095868;28;20032;-72
2023/05/03 09:26:42;;;;;;;12.65;4.63;;;;;;;11.91;55.22;102779.06;5108339;28;20085;-73
2023/05/03 09:29:07;;;;;;;8.70;4.78;;;;;;;11.99;53.46;102778.19;5102667;28;20107;-73
2023/05/03 09:31:34;;;;;;;10.23;4.88;;;;;;;12.12;53.26;102787.78;5090796;28;20103;-73
2023/05/03 09:34:00;;;;;;;9.18;4.63;;;;;;;12.18;53.75;102786.06;5085617;28;20085;-73
2023/05/03 09:36:26;;;;;;;7.28;4.10;;;;;;;12.23;51.83;102780.84;5107908;28;20015;-71
2023/05/03 09:39:12;;;;;;;9.30;4.45;;;;;;;12.20;53.45;102775.59;5082504;28;20027;-74
2023/05/03 09:41:37;;;;;;;6.97;4.35;;;;;;;12.31;51.93;102788.69;5092887;28;20023;-73
2023/05/03 09:44:03;;;;;;;6.07;4.28;;;;;;;12.36;50.46;102768.59;5112932;28;20127;-73
2023/05/03 09:46:31;;;;;;;7.82;4.47;;;;;;;12.49;52.68;102779.94;5103370;28;20024;-73
2023/05/03 09:48:57;;;;;;;7.57;4.35;;;;;;;12.60;52.25;102762.50;5097308;28;20162;-73
2023/05/03 09:51:23;;;;;;;7.80;4.40;;;;;;;12.71;52.30;102752.88;5098757;28;20118;-75
2023/05/03 09:53:49;;;;;;;8.63;4.50;;;;;;;12.92;51.50;102772.06;5106405;28;20024;-75
2023/05/03 09:56:15;;;;;;;13.85;4.93;;;;;;;12.93;49.49;102747.59;5105636;28;20024;-76
2023/05/03 09:58:42;;;;;;;6.45;4.82;;;;;;;13.13;50.75;102764.97;5102507;28;20032;-73
2023/05/03 10:01:08;;;;;;;10.07;4.88;;;;;;;13.08;50.12;102761.53;5107048;28;20478;-73
2023/05/03 10:03:44;;;;;;;6.65;4.82;;;;;;;13.10;49.92;102758.88;5112845;28;20040;-77
2023/05/03 10:06:37;;;;;;;14.73;5.30;;;;;;;13.03;51.59;102746.69;5112753;28;20027;-74
2023/05/03 10:09:46;;;;;;;7.07;4.45;;;;;;;13.27;50.34;102751.88;5103516;28;20067;-73
2023/05/03 10:12:12;;;;;;;9.45;5.00;;;;;;;13.43;52.68;102749.19;5028866;28;20435;-72
2023/05/03 10:14:42;;;;;;;9.07;4.40;;;;;;;13.47;48.98;102754.41;5029007;28;20045;-73
2023/05/03 10:17:16;;;;;;;6.07;4.28;;;;;;;13.54;49.52;102750.88;5064161;28;20029;-73
2023/05/03 10:19:54;;;;;;;6.45;4.75;;;;;;;13.54;48.63;102745.66;5110753;28;20032;-73
2023/05/03 10:22:19;;;;;;;8.93;4.55;;;;;;;13.49;46.55;102736.91;5100834;28;20701;-72
2023/05/03 10:25:00;;;;;;;10.02;4.40;;;;;;;13.72;49.29;102762.13;5102371;28;20024;-73
2023/05/03 10:27:44;;;;;;;7.35;4.90;;;;;;;13.78;48.12;102760.34;5112955;28;20027;-73
2023/05/03 10:30:31;;;;;;;;;;;;;;;13.85;48.42;102747.19;5098261;28;20486;-73
2023/05/03 10:32:56;;;;;;;8.48;5.03;;;;;;;13.82;46.80;102746.31;5103984;28;19912;-73
2023/05/03 10:35:26;;;;;;;10.63;4.50;;;;;;;13.96;48.03;102755.84;5102239;28;20034;-73
2023/05/03 10:37:51;;;;;;;8.02;5.10;;;;;;;14.11;50.55;102747.00;5111734;28;20023;-73
2023/05/03 10:40:17;;;;;;;13.82;5.00;;;;;;;14.34;49.02;102757.31;5110446;28;20024;-73
2023/05/03 10:42:53;;;;;;;8.32;5.18;;;;;;;14.37;44.51;102744.16;5101123;28;20089;-73
2023/05/03 10:45:25;;;;;;;8.93;4.72;;;;;;;14.45;47.65;102724.84;5109808;28;20019;-73
2023/05/03 10:48:11;;;;;;;9.10;4.85;;;;;;;14.70;47.70;102748.25;5085065;28;20020;-73
2023/05/03 10:50:41;;;;;;;9.43;4.30;;;;;;;14.85;45.45;102750.72;5108774;28;20080;-71
2023/05/03 10:53:07;;;;;;;6.55;4.30;;;;;;;14.95;46.20;102754.97;5112121;28;20073;-73
2023/05/03 10:55:33;;;;;;;8.23;5.15;;;;;;;14.91;47.13;102739.25;5093998;28;20020;-75
2023/05/03 10:57:59;;;;;;;7.75;4.90;;;;;;;15.07;46.83;102740.81;5092588;28;20024;-76
2023/05/03 11:00:38;;;;;;;9.43;4.75;;;;;;;15.26;46.01;102737.97;5102884;28;20032;-75
2023/05/03 11:03:12;;;;;;;9.77;4.65;;;;;;;15.42;44.58;102742.13;5107256;28;20023;-75
2023/05/03 11:05:38;;;;;;;11.70;4.78;;;;;;;15.48;46.13;102742.06;5111662;28;20084;-76
2023/05/03 11:08:08;;;;;;;6.35;4.53;;;;;;;15.60;43.52;102734.00;5102706;28;20019;-76
2023/05/03 11:10:34;;;;;;;8.05;4.60;;;;;;;15.63;44.12;102723.44;5116394;28;20416;-76
2023/05/03 11:12:59;;;;;;;14.00;4.60;;;;;;;15.67;44.32;102722.53;5113147;28;20519;-76
2023/05/03 11:15:24;;;;;;;7.07;5.00;;;;;;;15.73;42.63;102718.94;5110728;28;20050;-77
2023/05/03 11:17:50;;;;;;;8.48;4.93;;;;;;;15.71;43.12;102717.22;5093747;28;20506;-74
2023/05/03 11:20:15;;;;;;;12.32;4.78;;;;;;;15.86;43.52;102714.38;5114009;28;20122;-76
2023/05/03 11:22:41;;;;;;;8.95;5.03;;;;;;;16.01;44.18;102713.25;5115837;28;20023;-75
2023/05/03 11:25:06;;;;;;;10.27;4.95;;;;;;;16.22;44.58;102712.00;5109188;28;20042;-75
2023/05/03 11:27:32;;;;;;;10.20;4.75;;;;;;;16.21;42.15;102700.59;5109323;28;20030;-75